createdAt,value
2023-05-08T00:00:40.664Z,4.23
2023-05-08T00:03:17.525Z,4.20
2023-05-08T00:05:45.386Z,4.17
2023-05-08T00:08:13.109Z,4.13
2023-05-08T00:10:40.856Z,4.12
2023-05-08T00:13:08.685Z,4.11
2023-05-08T00:15:36.750Z,4.08
2023-05-08T00:18:04.667Z,4.02
2023-05-08T00:20:34.378Z,3.97
2023-05-08T00:23:02.065Z,3.91
2023-05-08T00:25:31.393Z,3.85
2023-05-08T00:27:59.827Z,3.80
2023-05-08T00:30:27.860Z,3.79
2023-05-08T00:32:55.554Z,3.77
2023-05-08T00:35:23.329Z,3.74
2023-05-08T00:37:51.317Z,3.69
2023-05-08T00:40:18.993Z,3.64
2023-05-08T00:42:46.621Z,3.59
2023-05-08T00:45:14.300Z,3.57
2023-05-08T00:47:42.934Z,3.57
2023-05-08T00:50:11.169Z,3.56
2023-05-08T00:52:39.531Z,3.54
2023-05-08T00:55:08.126Z,3.52
2023-05-08T00:57:36.315Z,3.49
2023-05-08T01:00:05.790Z,3.47
2023-05-08T01:02:34.676Z,3.42
2023-05-08T01:05:03.696Z,3.38
2023-05-08T01:07:32.815Z,3.38
2023-05-08T01:10:00.986Z,3.38
2023-05-08T01:13:09.191Z,3.38
2023-05-08T01:15:51.241Z,3.29
2023-05-08T01:18:21.378Z,3.24
2023-05-08T01:20:49.014Z,3.22
2023-05-08T01:23:53.220Z,3.22
2023-05-08T01:26:42.159Z,3.14
2023-05-08T01:29:45.755Z,3.13
2023-05-08T01:32:19.372Z,3.09
2023-05-08T01:34:59.382Z,3.09
2023-05-08T01:37:49.977Z,3.12
2023-05-08T01:40:27.231Z,3.09
2023-05-08T01:43:08.330Z,3.10
2023-05-08T01:45:40.603Z,3.05
2023-05-08T01:48:13.390Z,3.05
2023-05-08T01:50:46.236Z,3.04
2023-05-08T01:53:23.098Z,3.00
2023-05-08T01:55:57.310Z,2.93
2023-05-08T01:58:27.029Z,2.88
2023-05-08T02:00:55.261Z,2.86
2023-05-08T02:03:24.727Z,2.84
2023-05-08T02:05:55.519Z,2.84
2023-05-08T02:08:25.792Z,2.80
2023-05-08T02:10:55.686Z,2.76
2023-05-08T02:13:25.691Z,2.74
2023-05-08T02:15:56.216Z,2.71
2023-05-08T02:18:26.162Z,2.68
2023-05-08T02:20:56.496Z,2.63
2023-05-08T02:23:26.712Z,2.59
2023-05-08T02:25:56.041Z,2.57
2023-05-08T02:28:25.112Z,2.55
2023-05-08T02:30:53.351Z,2.54
2023-05-08T02:33:21.912Z,2.51
2023-05-08T02:35:51.105Z,2.47
2023-05-08T02:38:21.603Z,2.45
2023-05-08T02:40:53.330Z,2.40
2023-05-08T02:43:20.984Z,2.37
2023-05-08T02:46:17.850Z,2.31
2023-05-08T02:48:58.661Z,2.24
2023-05-08T02:51:49.022Z,2.23
2023-05-08T02:54:21.852Z,2.20
2023-05-08T02:57:03.981Z,2.23
2023-05-08T02:59:39.403Z,2.22
2023-05-08T03:02:12.432Z,2.22
2023-05-08T03:04:51.523Z,2.25
2023-05-08T03:07:26.173Z,2.27
2023-05-08T03:10:00.568Z,2.29
2023-05-08T03:12:30.900Z,2.26
2023-05-08T03:15:12.188Z,2.25
2023-05-08T03:17:43.324Z,2.24
2023-05-08T03:20:15.945Z,2.27
2023-05-08T03:22:45.188Z,2.31
2023-05-08T03:25:14.438Z,2.38
2023-05-08T03:27:44.000Z,2.41
2023-05-08T03:30:13.484Z,2.43
2023-05-08T03:32:45.226Z,2.45
2023-05-08T03:35:14.956Z,2.48
2023-05-08T03:37:43.433Z,2.57
2023-05-08T03:40:11.669Z,2.67
2023-05-08T03:42:41.683Z,2.76
2023-05-08T03:45:10.815Z,2.82
2023-05-08T03:47:41.855Z,2.90
2023-05-08T03:50:10.741Z,3.01
2023-05-08T03:52:38.709Z,3.12
2023-05-08T03:55:07.017Z,3.23
2023-05-08T03:57:42.758Z,3.33
2023-05-08T04:00:17.297Z,3.41
2023-05-08T04:02:55.227Z,3.52
2023-05-08T04:05:37.866Z,3.59
2023-05-08T04:08:34.629Z,3.66
2023-05-08T04:11:31.755Z,3.75
2023-05-08T04:14:06.356Z,3.86
2023-05-08T04:16:49.041Z,3.98
2023-05-08T04:19:25.490Z,4.10
2023-05-08T04:21:57.331Z,4.23
2023-05-08T04:24:29.639Z,4.36
2023-05-08T04:26:57.695Z,4.50
2023-05-08T04:29:25.844Z,4.63
2023-05-08T04:31:56.117Z,4.75
2023-05-08T04:34:24.265Z,4.89
2023-05-08T04:36:51.996Z,5.01
2023-05-08T04:39:20.260Z,5.13
2023-05-08T04:41:48.793Z,5.27
2023-05-08T04:44:17.022Z,5.43
2023-05-08T04:46:44.659Z,5.59
2023-05-08T04:49:12.343Z,5.73
2023-05-08T04:51:39.983Z,5.82
2023-05-08T04:54:07.764Z,5.93
2023-05-08T04:56:36.159Z,6.06
2023-05-08T04:59:03.830Z,6.17
2023-05-08T05:01:31.546Z,6.28
2023-05-08T05:03:59.276Z,6.39
2023-05-08T05:06:27.634Z,6.51
2023-05-08T05:08:55.623Z,6.65
2023-05-08T05:11:23.405Z,6.79
2023-05-08T05:13:51.075Z,6.94
2023-05-08T05:16:18.860Z,7.10
2023-05-08T05:18:47.349Z,7.28
2023-05-08T05:21:15.070Z,7.47
2023-05-08T05:23:42.818Z,7.69
2023-05-08T05:26:10.645Z,7.86
2023-05-08T05:28:38.403Z,8.08
2023-05-08T05:31:06.405Z,8.33
2023-05-08T05:33:34.069Z,9.09
2023-05-08T05:36:02.451Z,10.24
2023-05-08T05:38:30.192Z,11.24
2023-05-08T05:40:57.821Z,12.28
2023-05-08T05:43:25.711Z,13.07
2023-05-08T05:45:53.394Z,13.73
2023-05-08T05:48:21.383Z,14.26
2023-05-08T05:50:50.308Z,14.84
2023-05-08T05:53:18.229Z,15.33
2023-05-08T05:55:46.678Z,15.60
2023-05-08T05:58:15.885Z,16.07
2023-05-08T06:00:44.128Z,16.59
2023-05-08T06:03:11.952Z,16.87
2023-05-08T06:05:40.794Z,17.08
2023-05-08T06:08:11.501Z,17.26
2023-05-08T06:10:40.131Z,17.13
2023-05-08T06:13:09.747Z,17.26
2023-05-08T06:15:46.451Z,17.27
2023-05-08T06:18:23.879Z,16.91
2023-05-08T06:21:06.670Z,17.00
2023-05-08T06:23:34.606Z,17.07
2023-05-08T06:26:02.467Z,17.20
2023-05-08T06:28:30.193Z,17.43
2023-05-08T06:30:58.014Z,17.67
2023-05-08T06:33:27.032Z,17.70
2023-05-08T06:35:55.760Z,17.83
2023-05-08T06:38:23.639Z,18.08
2023-05-08T06:40:51.469Z,18.18
2023-05-08T06:43:19.193Z,18.40
2023-05-08T06:45:46.904Z,18.69
2023-05-08T06:48:14.845Z,18.80
2023-05-08T06:50:43.426Z,18.88
2023-05-08T06:53:11.466Z,18.92
2023-05-08T06:55:39.221Z,19.18
2023-05-08T06:58:07.063Z,19.23
2023-05-08T07:00:35.363Z,19.17
2023-05-08T07:03:03.373Z,19.15
2023-05-08T07:05:31.144Z,18.76
2023-05-08T07:07:58.895Z,18.88
2023-05-08T07:10:26.624Z,18.01
2023-05-08T07:12:54.550Z,18.13
2023-05-08T07:15:26.351Z,17.90
2023-05-08T07:17:54.786Z,17.32
2023-05-08T07:20:24.592Z,17.01
2023-05-08T07:22:52.567Z,17.45
2023-05-08T07:25:20.452Z,18.27
2023-05-08T07:27:48.178Z,18.93
2023-05-08T07:30:16.049Z,19.40
2023-05-08T07:32:43.862Z,19.79
2023-05-08T07:35:12.988Z,20.12
2023-05-08T07:37:41.173Z,20.33
2023-05-08T07:40:09.241Z,19.95
2023-05-08T07:42:44.221Z,19.53
2023-05-08T07:45:13.984Z,18.74
2023-05-08T07:48:02.317Z,18.39
2023-05-08T07:50:30.232Z,18.01
2023-05-08T07:52:58.031Z,18.68
2023-05-08T07:55:26.011Z,18.92
2023-05-08T07:57:53.937Z,19.67
2023-05-08T08:00:21.785Z,20.34
2023-05-08T08:02:49.906Z,21.06
2023-05-08T08:05:18.149Z,20.99
2023-05-08T08:07:45.941Z,20.74
2023-05-08T08:10:13.896Z,20.28
2023-05-08T08:12:41.895Z,20.04
2023-05-08T08:15:12.493Z,20.35
2023-05-08T08:17:40.546Z,20.54
2023-05-08T08:20:09.218Z,20.07
2023-05-08T08:22:38.023Z,19.75
2023-05-08T08:25:06.248Z,20.62
2023-05-08T08:27:34.005Z,21.42
2023-05-08T08:30:15.846Z,22.06
2023-05-08T08:32:45.951Z,21.76
2023-05-08T08:35:13.936Z,20.78
2023-05-08T08:37:42.283Z,19.95
2023-05-08T08:40:10.304Z,20.93
2023-05-08T08:42:37.972Z,21.25
2023-05-08T08:45:06.969Z,20.67
2023-05-08T08:47:37.952Z,21.82
2023-05-08T08:50:09.503Z,22.63
2023-05-08T08:52:46.989Z,21.39
2023-05-08T08:55:20.288Z,20.08
2023-05-08T08:58:00.829Z,19.48
2023-05-08T09:00:32.736Z,19.44
2023-05-08T09:03:01.012Z,19.18
2023-05-08T09:05:29.530Z,18.98
2023-05-08T09:07:58.292Z,18.56
2023-05-08T09:10:26.008Z,18.47
2023-05-08T09:12:54.165Z,18.46
2023-05-08T09:15:24.143Z,18.63
2023-05-08T09:17:52.288Z,19.90
2023-05-08T09:20:20.315Z,20.26
2023-05-08T09:22:52.149Z,19.34
2023-05-08T09:25:20.361Z,18.82
2023-05-08T09:27:48.410Z,19.04
2023-05-08T09:30:16.167Z,20.36
2023-05-08T09:32:47.777Z,20.88
2023-05-08T09:35:16.085Z,20.38
2023-05-08T09:37:44.144Z,20.60
2023-05-08T09:40:20.953Z,22.53
2023-05-08T09:42:50.390Z,23.70
2023-05-08T09:45:32.804Z,24.12
2023-05-08T09:48:00.772Z,24.63
2023-05-08T09:50:28.714Z,25.07
2023-05-08T09:52:56.502Z,24.34
2023-05-08T09:55:26.548Z,23.17
2023-05-08T09:58:00.375Z,24.08
2023-05-08T10:00:29.511Z,25.72
2023-05-08T10:03:04.142Z,26.75
2023-05-08T10:05:34.751Z,27.47
2023-05-08T10:08:22.967Z,26.69
2023-05-08T10:10:51.275Z,25.51
2023-05-08T10:13:18.891Z,25.78
2023-05-08T10:15:54.520Z,23.82
2023-05-08T10:18:26.871Z,23.92
2023-05-08T10:20:58.465Z,25.53
2023-05-08T10:23:26.706Z,26.85
2023-05-08T10:29:04.828Z,26.66
2023-05-08T10:31:36.293Z,27.21
2023-05-08T10:34:06.053Z,26.31
2023-05-08T10:36:35.723Z,24.99
2023-05-08T10:39:03.464Z,23.99
2023-05-08T10:41:31.958Z,24.91
2023-05-08T10:44:02.578Z,24.48
2023-05-08T10:46:43.863Z,23.27
2023-05-08T10:49:48.649Z,23.67
2023-05-08T10:52:24.448Z,23.58
2023-05-08T10:55:04.456Z,24.57
2023-05-08T10:57:32.297Z,24.51
2023-05-08T10:59:59.975Z,25.13
2023-05-08T11:02:36.949Z,24.74
2023-05-08T11:05:31.754Z,24.75
2023-05-08T11:08:15.712Z,24.45
2023-05-08T11:10:54.406Z,25.57
2023-05-08T11:13:28.954Z,26.43
2023-05-08T11:15:57.141Z,25.24
2023-05-08T11:18:32.547Z,24.93
2023-05-08T11:21:16.092Z,26.07
2023-05-08T11:23:43.955Z,25.81
2023-05-08T11:26:16.596Z,26.63
2023-05-08T11:28:55.019Z,27.44
2023-05-08T11:31:52.703Z,28.55
2023-05-08T11:34:44.662Z,29.53
2023-05-08T11:41:24.796Z,27.49
2023-05-08T11:44:05.201Z,26.23
2023-05-08T11:46:33.087Z,26.18
2023-05-08T11:49:02.071Z,27.19
2023-05-08T11:51:33.677Z,28.26
2023-05-08T11:54:01.522Z,27.73
2023-05-08T11:56:30.717Z,28.17
2023-05-08T11:59:03.489Z,29.13
2023-05-08T12:01:32.977Z,30.00
2023-05-08T12:04:06.401Z,30.50
2023-05-08T12:06:39.014Z,30.61
2023-05-08T12:09:15.537Z,31.34
2023-05-08T12:11:45.744Z,31.70
2023-05-08T12:14:17.029Z,31.97
2023-05-08T12:16:44.847Z,31.60
2023-05-08T12:19:14.171Z,32.20
2023-05-08T12:21:48.949Z,33.19
2023-05-08T12:24:29.503Z,31.67
2023-05-08T12:27:00.020Z,30.29
2023-05-08T12:29:27.734Z,29.61
2023-05-08T12:31:55.835Z,28.18
2023-05-08T12:34:24.132Z,27.15
2023-05-08T12:37:02.216Z,26.32
2023-05-08T12:39:35.772Z,25.99
2023-05-08T12:42:03.538Z,27.10
2023-05-08T12:44:31.493Z,28.21
2023-05-08T12:47:00.335Z,28.34
2023-05-08T12:49:30.660Z,27.00
2023-05-08T12:52:03.331Z,26.02
2023-05-08T12:54:39.383Z,24.92
2023-05-08T12:57:15.257Z,24.99
2023-05-08T12:59:49.972Z,26.80
2023-05-08T13:02:23.860Z,27.80
2023-05-08T13:04:56.064Z,28.52
2023-05-08T13:07:23.969Z,29.27
2023-05-08T13:10:06.496Z,29.97
2023-05-08T13:12:35.875Z,30.21
2023-05-08T13:15:04.977Z,30.74
2023-05-08T13:17:33.178Z,30.97
2023-05-08T13:20:00.889Z,31.57
2023-05-08T13:22:29.143Z,31.58
2023-05-08T13:24:56.944Z,30.99
2023-05-08T13:27:25.275Z,30.25
2023-05-08T13:29:53.212Z,30.25
2023-05-08T13:32:21.372Z,28.35
2023-05-08T13:34:51.094Z,27.72
2023-05-08T13:37:21.072Z,27.13
2023-05-08T13:39:48.787Z,27.23
2023-05-08T13:42:16.433Z,27.48
2023-05-08T13:44:44.096Z,27.75
2023-05-08T13:47:11.941Z,27.75
2023-05-08T13:49:39.650Z,28.28
2023-05-08T13:52:07.334Z,26.87
2023-05-08T13:54:35.048Z,24.58
2023-05-08T13:57:03.221Z,23.07
2023-05-08T13:59:31.524Z,22.15
2023-05-08T14:01:59.507Z,22.59
2023-05-08T14:04:27.691Z,24.01
2023-05-08T14:06:55.484Z,24.54
2023-05-08T14:09:23.229Z,25.04
2023-05-08T14:11:50.957Z,26.25
2023-05-08T14:14:18.674Z,27.00
2023-05-08T14:16:46.299Z,26.38
2023-05-08T14:19:13.924Z,26.40
2023-05-08T14:21:42.033Z,27.11
2023-05-08T14:24:09.822Z,28.15
2023-05-08T14:26:38.197Z,28.80
2023-05-08T14:29:05.953Z,29.68
2023-05-08T14:31:33.717Z,30.00
2023-05-08T14:34:01.419Z,29.69
2023-05-08T14:36:29.191Z,27.33
2023-05-08T14:38:56.965Z,27.48
2023-05-08T14:41:29.002Z,28.20
2023-05-08T14:43:58.481Z,27.82
2023-05-08T14:46:26.115Z,26.08
2023-05-08T14:48:54.888Z,25.43
2023-05-08T14:51:23.218Z,24.78
2023-05-08T14:53:51.260Z,24.10
2023-05-08T14:56:19.227Z,23.27
2023-05-08T14:58:46.918Z,23.19
2023-05-08T15:01:14.636Z,23.38
2023-05-08T15:03:42.383Z,24.56
2023-05-08T15:06:10.332Z,27.64
2023-05-08T15:08:37.998Z,30.47
2023-05-08T15:11:05.609Z,31.88
2023-05-08T15:13:33.331Z,30.84
2023-05-08T15:16:01.054Z,30.21
2023-05-08T15:18:28.925Z,29.64
2023-05-08T15:20:57.951Z,30.22
2023-05-08T15:23:26.349Z,31.49
2023-05-08T15:25:54.052Z,32.24
2023-05-08T15:28:21.719Z,31.73
2023-05-08T15:30:49.376Z,30.86
2023-05-08T15:33:17.067Z,29.69
2023-05-08T15:35:45.135Z,27.56
2023-05-08T15:38:12.836Z,25.55
2023-05-08T15:40:40.628Z,24.30
2023-05-08T15:43:08.355Z,23.47
2023-05-08T15:45:36.044Z,24.06
2023-05-08T15:48:04.020Z,24.84
2023-05-08T15:50:31.730Z,26.66
2023-05-08T15:53:00.164Z,29.64
2023-05-08T15:55:27.906Z,31.17
2023-05-08T15:57:55.741Z,30.70
2023-05-08T16:00:27.326Z,30.72
2023-05-08T16:02:58.088Z,30.19
2023-05-08T16:05:25.861Z,28.66
2023-05-08T16:07:55.469Z,26.15
2023-05-08T16:10:23.132Z,24.57
2023-05-08T16:12:51.143Z,23.69
2023-05-08T16:15:19.017Z,23.08
2023-05-08T16:17:46.702Z,22.61
2023-05-08T16:20:14.368Z,21.96
2023-05-08T16:22:42.088Z,21.63
2023-05-08T16:25:10.006Z,21.29
2023-05-08T16:27:37.601Z,20.84
2023-05-08T16:30:07.588Z,20.76
2023-05-08T16:32:35.519Z,20.47
2023-05-08T16:35:04.017Z,19.97
2023-05-08T16:37:31.760Z,19.72
2023-05-08T16:39:59.587Z,19.78
2023-05-08T16:42:27.238Z,19.78
2023-05-08T16:44:54.933Z,19.75
2023-05-08T16:47:22.655Z,19.58
2023-05-08T16:49:50.401Z,19.40
2023-05-08T16:52:18.149Z,19.22
2023-05-08T16:54:45.810Z,18.44
2023-05-08T16:57:13.476Z,17.94
2023-05-08T16:59:41.482Z,18.02
2023-05-08T17:02:09.312Z,18.00
2023-05-08T17:04:37.022Z,17.97
2023-05-08T17:07:05.797Z,17.80
2023-05-08T17:09:35.380Z,17.51
2023-05-08T17:12:03.726Z,17.42
2023-05-08T17:14:31.619Z,17.38
2023-05-08T17:16:59.443Z,17.27
2023-05-08T17:19:27.095Z,17.18
2023-05-08T17:21:57.565Z,16.93
2023-05-08T17:24:27.672Z,16.89
2023-05-08T17:26:55.667Z,16.87
2023-05-08T17:29:24.691Z,16.77
2023-05-08T17:31:52.592Z,16.80
2023-05-08T17:34:21.046Z,16.75
2023-05-08T17:36:48.822Z,16.78
2023-05-08T17:39:19.877Z,16.75
2023-05-08T17:41:49.294Z,16.71
2023-05-08T17:44:17.838Z,16.70
2023-05-08T17:46:46.187Z,16.69
2023-05-08T17:49:15.444Z,16.63
2023-05-08T17:51:44.013Z,16.61
2023-05-08T17:54:11.669Z,16.53
2023-05-08T17:56:39.325Z,16.41
2023-05-08T17:59:07.009Z,16.32
2023-05-08T18:01:34.730Z,16.20
2023-05-08T18:04:02.385Z,16.07
2023-05-08T18:06:30.056Z,15.93
2023-05-08T18:08:57.951Z,15.77
2023-05-08T18:11:26.380Z,15.62
2023-05-08T18:13:54.322Z,15.48
2023-05-08T18:16:22.571Z,15.32
2023-05-08T18:18:50.340Z,15.17
2023-05-08T18:21:18.056Z,15.04
2023-05-08T18:23:45.868Z,14.92
2023-05-08T18:26:14.922Z,14.81
2023-05-08T18:28:43.699Z,14.63
2023-05-08T18:31:12.176Z,14.36
2023-05-08T18:33:39.907Z,14.18
2023-05-08T18:36:07.559Z,14.09
2023-05-08T18:38:36.410Z,14.02
2023-05-08T18:41:06.132Z,13.94
2023-05-08T18:43:33.914Z,13.86
2023-05-08T18:46:08.529Z,13.71
2023-05-08T18:48:36.274Z,13.56
2023-05-08T18:51:04.347Z,13.44
2023-05-08T18:53:33.150Z,13.38
2023-05-08T18:56:03.309Z,13.28
2023-05-08T18:58:31.391Z,13.17
2023-05-08T19:00:59.085Z,13.09
2023-05-08T19:03:28.315Z,13.00
2023-05-08T19:05:56.200Z,12.94
2023-05-08T19:08:24.447Z,12.86
2023-05-08T19:10:53.449Z,12.72
2023-05-08T19:13:21.185Z,12.62
2023-05-08T19:15:48.889Z,12.54
2023-05-08T19:18:17.990Z,12.45
2023-05-08T19:20:46.679Z,12.34
2023-05-08T19:23:14.346Z,12.26
2023-05-08T19:25:41.990Z,12.17
2023-05-08T19:28:09.666Z,12.06
2023-05-08T19:30:38.017Z,12.01
2023-05-08T19:33:07.194Z,11.90
2023-05-08T19:35:34.866Z,11.80
2023-05-08T19:38:02.541Z,11.74
2023-05-08T19:40:30.915Z,11.63
2023-05-08T19:42:58.586Z,11.48
2023-05-08T19:45:26.177Z,11.39
2023-05-08T19:47:53.832Z,11.27
2023-05-08T19:50:22.038Z,11.21
2023-05-08T19:52:49.873Z,11.15
2023-05-08T19:55:18.404Z,11.09
2023-05-08T19:57:46.221Z,10.97
2023-05-08T20:00:14.238Z,10.97
2023-05-08T20:02:42.123Z,10.95
2023-05-08T20:07:40.757Z,10.89
2023-05-08T20:10:08.849Z,10.76
2023-05-08T20:12:36.788Z,10.61
2023-05-08T20:15:06.819Z,10.56
2023-05-08T20:17:34.633Z,10.55
2023-05-08T20:20:02.356Z,10.49
2023-05-08T20:22:29.952Z,10.43
2023-05-08T20:24:57.661Z,10.38
2023-05-08T20:27:25.436Z,10.31
2023-05-08T20:29:53.128Z,10.21
2023-05-08T20:32:20.923Z,10.14
2023-05-08T20:34:48.522Z,10.06
2023-05-08T20:37:16.277Z,10.03
2023-05-08T20:39:45.041Z,9.99
2023-05-08T20:42:12.771Z,9.94
2023-05-08T20:44:40.599Z,9.81
2023-05-08T20:47:08.310Z,9.76
2023-05-08T20:49:35.902Z,9.75
2023-05-08T20:52:05.458Z,9.70
2023-05-08T20:54:33.170Z,9.60
2023-05-08T20:57:02.017Z,9.52
2023-05-08T20:59:29.742Z,9.42
2023-05-08T21:01:57.360Z,9.34
2023-05-08T21:04:25.551Z,9.33
2023-05-08T21:06:53.237Z,9.24
2023-05-08T21:09:20.879Z,9.19
2023-05-08T21:11:48.649Z,9.16
2023-05-08T21:14:16.330Z,9.12
2023-05-08T21:16:44.101Z,9.06
2023-05-08T21:19:17.008Z,9.01
2023-05-08T21:21:45.132Z,8.97
2023-05-08T21:24:12.985Z,8.95
2023-05-08T21:26:40.865Z,8.89
2023-05-08T21:29:10.820Z,8.80
2023-05-08T21:31:38.650Z,8.71
2023-05-08T21:34:07.250Z,8.66
2023-05-08T21:36:35.421Z,8.53
2023-05-08T21:39:03.212Z,8.44
2023-05-08T21:41:30.918Z,8.40
2023-05-08T21:43:58.577Z,8.33
2023-05-08T21:46:26.326Z,8.26
2023-05-08T21:48:54.150Z,8.24
2023-05-08T21:51:21.762Z,8.24
2023-05-08T21:53:49.754Z,8.23
2023-05-08T21:56:17.425Z,8.18
2023-05-08T21:58:45.137Z,8.13
2023-05-08T22:01:12.886Z,8.08
2023-05-08T22:03:40.845Z,8.05
2023-05-08T22:06:10.248Z,8.00
2023-05-08T22:08:37.824Z,7.90
2023-05-08T22:11:05.471Z,7.82
2023-05-08T22:13:33.193Z,7.74
2023-05-08T22:16:00.868Z,7.67
2023-05-08T22:18:28.552Z,7.61
2023-05-08T22:20:56.733Z,7.56
2023-05-08T22:23:24.567Z,7.52
2023-05-08T22:25:52.248Z,7.46
2023-05-08T22:28:20.095Z,7.43
2023-05-08T22:30:48.029Z,7.38
2023-05-08T22:33:15.681Z,7.38
2023-05-08T22:35:43.311Z,7.36
2023-05-08T22:38:11.011Z,7.33
2023-05-08T22:40:38.906Z,7.31
2023-05-08T22:43:06.580Z,7.26
2023-05-08T22:45:34.733Z,7.22
2023-05-08T22:48:03.421Z,7.18
2023-05-08T22:50:31.102Z,7.13
2023-05-08T22:52:58.698Z,7.04
2023-05-08T22:55:26.355Z,7.02
2023-05-08T22:57:54.021Z,6.99
2023-05-08T23:00:21.735Z,6.91
2023-05-08T23:02:49.451Z,6.84
2023-05-08T23:05:17.289Z,6.80
2023-05-08T23:07:45.101Z,6.77
2023-05-08T23:10:14.142Z,6.70
2023-05-08T23:12:43.032Z,6.62
2023-05-08T23:15:11.545Z,6.57
2023-05-08T23:17:39.297Z,6.51
2023-05-08T23:20:07.579Z,6.47
2023-05-08T23:22:35.184Z,6.45
2023-05-08T23:25:02.907Z,6.46
2023-05-08T23:27:30.629Z,6.43
2023-05-08T23:29:58.386Z,6.39
2023-05-08T23:32:26.256Z,6.36
2023-05-08T23:34:53.985Z,6.29
2023-05-08T23:37:21.997Z,6.25
2023-05-08T23:39:49.632Z,6.22
2023-05-08T23:42:17.284Z,6.23
2023-05-08T23:44:44.941Z,6.18
2023-05-08T23:47:12.794Z,6.10
2023-05-08T23:49:40.846Z,6.06
2023-05-08T23:52:10.199Z,6.02
2023-05-08T23:54:37.822Z,5.98
2023-05-08T23:57:05.583Z,5.95
2023-05-08T23:59:33.206Z,5.92
